Time;durP1;ratioP1;P1;durP2;ratioP2;P2;SDS_P1;SDS_P2;PMS_P1;PMS_P2;Temp;Humidity;BMP_temperature;BMP_pressure;BME280_temperature;BME280_humidity;BME280_pressure;Samples;Min_cycle;Max_cycle;Signal;HPM_P1;HPM_P2
2023/03/05 00:01:06;;;;;;;4.93;3.20;;;;;20.00;101017.00;;;;2062543;28;20215;-79
2023/03/05 00:02:06;;;;;;;5.50;3.40;;;;;19.90;101008.00;;;;2063425;28;20218;-79
2023/03/05 00:03:06;;;;;;;5.90;2.77;;;;;19.90;101004.00;;;;2063278;28;20229;-79
2023/03/05 00:04:09;;;;;;;5.53;4.40;;;;;19.90;101004.00;;;;2062955;28;20225;-78
2023/03/05 00:05:10;;;;;;;5.07;3.80;;;;;19.90;100999.00;;;;2054542;28;20730;-79
2023/03/05 00:06:10;;;;;;;7.40;3.70;;;;;19.90;101001.00;;;;2053218;28;20226;-79
2023/03/05 00:07:13;;;;;;;6.70;3.27;;;;;19.90;100984.00;;;;2063130;28;20233;-79
2023/03/05 00:08:13;;;;;;;5.55;3.55;;;;;19.90;100982.00;;;;2063120;28;20280;-79
2023/03/05 00:09:13;;;;;;;6.37;3.37;;;;;19.90;100999.00;;;;2063131;28;20736;-79
2023/03/05 00:10:14;;;;;;;6.37;3.17;;;;;19.90;100959.00;;;;2063452;28;20581;-79
2023/03/05 00:11:14;;;;;;;4.73;2.83;;;;;19.90;101006.00;;;;2063275;28;20640;-79
2023/03/05 00:12:15;;;;;;;7.37;3.50;;;;;19.90;100990.00;;;;2063088;28;20222;-79
2023/03/05 00:13:16;;;;;;;4.75;3.15;;;;;19.90;100998.00;;;;2063435;28;20246;-79
2023/03/05 00:14:16;;;;;;;5.17;2.57;;;;;19.90;100998.00;;;;2063341;28;20215;-79
2023/03/05 00:15:16;;;;;;;4.83;2.70;;;;;19.80;101002.00;;;;2063251;28;20411;-78
2023/03/05 00:16:17;;;;;;;4.33;2.87;;;;;19.90;100994.00;;;;2063533;28;20260;-79
2023/03/05 00:17:17;;;;;;;6.10;3.30;;;;;19.90;100999.00;;;;2063197;28;20222;-79
2023/03/05 00:18:18;;;;;;;4.43;2.60;;;;;19.90;100996.00;;;;2063067;28;20227;-79
2023/03/05 00:19:18;;;;;;;4.73;2.40;;;;;19.90;100995.00;;;;2054608;28;20219;-79
2023/03/05 00:20:18;;;;;;;6.67;3.13;;;;;19.80;100990.00;;;;2054462;28;20743;-79
2023/03/05 00:21:27;;;;;;;5.23;2.70;;;;;19.90;101000.00;;;;2062846;28;20214;-79
2023/03/05 00:22:27;;;;;;;5.35;2.75;;;;;19.80;101003.00;;;;2063059;28;20742;-79
2023/03/05 00:23:27;;;;;;;3.47;2.80;;;;;19.80;100996.00;;;;2063468;28;20261;-79
2023/03/05 00:24:28;;;;;;;6.60;2.57;;;;;19.80;100993.00;;;;2063017;28;20211;-79
2023/03/05 00:25:28;;;;;;;4.50;2.63;;;;;19.80;100997.00;;;;2063325;28;20212;-79
2023/03/05 00:26:29;;;;;;;5.17;2.50;;;;;19.80;100996.00;;;;2063357;28;20218;-79
2023/03/05 00:27:29;;;;;;;4.07;2.90;;;;;19.80;100993.00;;;;2061566;28;20298;-79
2023/03/05 00:28:29;;;;;;;4.03;2.50;;;;;19.80;100996.00;;;;2054124;28;20212;-79
2023/03/05 00:29:30;;;;;;;5.33;2.40;;;;;19.80;100992.00;;;;2054576;28;20215;-80
2023/03/05 00:30:31;;;;;;;3.23;1.97;;;;;19.80;100996.00;;;;2054653;28;20820;-79
2023/03/05 00:31:32;;;;;;;5.50;2.78;;;;;19.80;100995.00;;;;2062745;28;20214;-80
2023/03/05 00:32:34;;;;;;;6.55;2.22;;;;;19.80;100991.00;;;;2062539;28;20223;-79
2023/03/05 00:33:34;;;;;;;3.67;2.20;;;;;19.80;100989.00;;;;2064152;28;20211;-79
2023/03/05 00:34:36;;;;;;;3.77;2.20;;;;;19.80;100987.00;;;;2064151;28;20630;-79
2023/03/05 00:35:43;;;;;;;4.40;2.30;;;;;19.80;100994.00;;;;2064841;28;20273;-79
2023/03/05 00:36:48;;;;;;;6.15;2.25;;;;;19.80;100905.00;;;;2064181;28;20265;-79
2023/03/05 00:37:49;;;;;;;4.20;2.40;;;;;19.80;100981.00;;;;2064181;28;20219;-79
2023/03/05 00:38:50;;;;;;;5.75;2.40;;;;;19.80;100984.00;;;;2064026;28;20227;-79
2023/03/05 00:39:50;;;;;;;3.87;2.23;;;;;19.80;100968.00;;;;2064915;28;20564;-79
2023/03/05 00:40:51;;;;;;;5.57;2.30;;;;;19.80;100985.00;;;;2064816;28;20214;-79
2023/03/05 00:41:51;;;;;;;4.23;2.10;;;;;19.80;100977.00;;;;2064860;28;20230;-79
2023/03/05 00:42:51;;;;;;;4.83;1.97;;;;;19.70;100977.00;;;;2063589;28;20225;-79
2023/03/05 00:43:55;;;;;;;3.53;2.10;;;;;19.70;100986.00;;;;2065601;28;20664;-80
2023/03/05 00:44:55;;;;;;;3.55;2.30;;;;;19.70;100981.00;;;;2071952;28;20601;-79
2023/03/05 00:45:55;;;;;;;4.80;2.17;;;;;19.70;100984.00;;;;2072228;28;20228;-79
2023/03/05 00:46:56;;;;;;;3.57;1.90;;;;;19.80;100979.00;;;;2072037;28;20218;-77
2023/03/05 00:47:56;;;;;;;5.40;2.30;;;;;19.70;100976.00;;;;2072338;28;20364;-77
2023/03/05 00:48:59;;;;;;;4.50;1.97;;;;;19.70;100960.00;;;;2072516;28;20218;-77
2023/03/05 00:49:59;;;;;;;3.50;1.90;;;;;19.70;100972.00;;;;2072200;28;20233;-77
2023/03/05 00:51:00;;;;;;;4.40;2.03;;;;;19.70;100978.00;;;;2072907;28;20218;-77
2023/03/05 00:52:00;;;;;;;4.00;2.20;;;;;19.70;100971.00;;;;2072304;28;20237;-79
2023/03/05 00:53:00;;;;;;;3.37;2.00;;;;;19.70;100972.00;;;;2071909;28;20222;-79
2023/03/05 00:54:01;;;;;;;4.20;2.00;;;;;19.60;100972.00;;;;2071560;28;20210;-79
2023/03/05 00:55:02;;;;;;;4.40;1.80;;;;;19.60;100960.00;;;;2072497;28;20285;-79
2023/03/05 00:56:02;;;;;;;4.10;1.97;;;;;19.60;100965.00;;;;2072555;28;20586;-80
2023/03/05 00:57:04;;;;;;;3.27;1.63;;;;;19.70;100965.00;;;;2071780;28;20268;-80
2023/03/05 00:58:04;;;;;;;4.25;1.70;;;;;19.70;100959.00;;;;2072223;28;20261;-79
2023/03/05 00:59:05;;;;;;;3.37;1.80;;;;;19.70;100956.00;;;;2072612;28;20253;-79
2023/03/05 01:00:06;;;;;;;4.93;1.70;;;;;19.70;100936.00;;;;2071892;28;20240;-79
2023/03/05 01:01:06;;;;;;;2.30;1.70;;;;;19.70;100932.00;;;;2071924;28;20345;-79
2023/03/05 01:02:07;;;;;;;3.70;1.67;;;;;19.60;100960.00;;;;2071858;28;20268;-79
2023/03/05 01:03:07;;;;;;;3.53;1.60;;;;;19.60;100961.00;;;;2072541;28;20772;-79
2023/03/05 01:04:08;;;;;;;3.90;1.90;;;;;19.40;100959.00;;;;2072518;28;20234;-79
2023/03/05 01:05:12;;;;;;;4.33;1.93;;;;;19.60;100954.00;;;;2072437;28;20594;-79
2023/03/05 01:06:12;;;;;;;3.97;2.10;;;;;19.60;100952.00;;;;2071918;28;20214;-80
2023/03/05 01:07:12;;;;;;;2.83;1.67;;;;;19.60;100944.00;;;;2071007;28;20218;-79
2023/03/05 01:08:14;;;;;;;4.93;1.80;;;;;19.60;100930.00;;;;2071430;28;20210;-79
2023/03/05 01:09:14;;;;;;;4.15;2.22;;;;;19.60;100955.00;;;;2072139;28;20257;-79
2023/03/05 01:10:14;;;;;;;2.83;1.53;;;;;19.50;100948.00;;;;2072262;28;20226;-79
2023/03/05 01:11:15;;;;;;;3.20;1.43;;;;;19.60;100948.00;;;;2072587;28;20225;-79
2023/03/05 01:12:15;;;;;;;3.63;1.77;;;;;19.60;100949.00;;;;2071785;28;20215;-79
2023/03/05 01:13:15;;;;;;;4.60;1.60;;;;;19.60;100919.00;;;;2072578;28;20225;-79
2023/03/05 01:14:16;;;;;;;4.10;1.83;;;;;19.60;100958.00;;;;2071640;28;20245;-79
2023/03/05 01:15:16;;;;;;;4.10;2.07;;;;;19.60;100953.00;;;;2071917;28;20222;-79
2023/03/05 01:16:16;;;;;;;5.60;1.47;;;;;19.60;100954.00;;;;2071770;28;20214;-80
2023/03/05 01:17:17;;;;;;;7.27;1.70;;;;;19.60;100951.00;;;;2072349;28;20335;-79
2023/03/05 01:18:17;;;;;;;3.70;1.73;;;;;19.60;100955.00;;;;2072040;28;21849;-79
2023/03/05 01:19:18;;;;;;;3.43;1.53;;;;;19.60;100953.00;;;;2072915;28;20221;-79
2023/03/05 01:20:19;;;;;;;3.77;1.80;;;;;19.60;100955.00;;;;2072692;28;20307;-79
2023/03/05 01:21:20;;;;;;;5.50;1.90;;;;;19.60;100950.00;;;;2071327;28;20607;-79
2023/03/05 01:22:21;;;;;;;3.15;1.70;;;;;19.60;100948.00;;;;2072161;28;20218;-79
2023/03/05 01:23:21;;;;;;;4.63;1.53;;;;;19.60;100945.00;;;;2072787;28;20224;-79
2023/03/05 01:24:21;;;;;;;4.20;1.87;;;;;19.60;100944.00;;;;2072964;28;20214;-79
2023/03/05 01:25:22;;;;;;;3.30;1.70;;;;;19.50;100946.00;;;;2071783;28;20218;-79
2023/03/05 01:26:22;;;;;;;3.30;1.53;;;;;19.60;100946.00;;;;2072289;28;20402;-79
2023/03/05 01:27:22;;;;;;;3.50;1.77;;;;;19.50;100946.00;;;;2072811;28;20712;-79
2023/03/05 01:28:23;;;;;;;5.17;1.47;;;;;19.60;100937.00;;;;2071953;28;20218;-79
2023/03/05 01:29:23;;;;;;;3.77;1.43;;;;;19.50;100934.00;;;;2072444;28;20353;-79
2023/03/05 01:30:23;;;;;;;4.53;1.93;;;;;19.50;100928.00;;;;2072181;28;20240;-79
2023/03/05 01:31:24;;;;;;;3.27;1.30;;;;;19.50;100936.00;;;;2072149;28;20206;-80
2023/03/05 01:32:24;;;;;;;2.10;1.13;;;;;19.50;100933.00;;;;2072046;28;20363;-79
2023/03/05 01:33:25;;;;;;;3.83;1.47;;;;;19.50;100944.00;;;;2062991;28;20292;-79
2023/03/05 01:34:25;;;;;;;3.40;1.47;;;;;19.50;100941.00;;;;2072329;28;20229;-80
2023/03/05 01:35:25;;;;;;;3.50;1.60;;;;;19.50;100937.00;;;;2073248;28;20272;-79
2023/03/05 01:36:26;;;;;;;4.07;1.80;;;;;19.50;100936.00;;;;2073331;28;20217;-79
2023/03/05 01:37:26;;;;;;;4.13;1.47;;;;;19.50;100927.00;;;;2074252;28;20214;-79
2023/03/05 01:38:27;;;;;;;3.03;1.50;;;;;19.50;100933.00;;;;2081889;28;20214;-80
2023/03/05 01:39:27;;;;;;;2.83;1.40;;;;;19.50;100933.00;;;;2075746;28;20424;-79
2023/03/05 01:40:28;;;;;;;3.93;1.80;;;;;19.50;100928.00;;;;2072752;28;20214;-80
2023/03/05 01:41:28;;;;;;;4.93;1.83;;;;;19.50;100927.00;;;;2072733;28;20648;-81
2023/03/05 01:42:29;;;;;;;3.30;1.43;;;;;19.50;100932.00;;;;2071308;28;20210;-79
2023/03/05 01:43:29;;;;;;;4.10;1.80;;;;;19.50;100927.00;;;;2072518;28;20224;-80
2023/03/05 01:44:30;;;;;;;2.67;1.50;;;;;19.50;100933.00;;;;2065447;28;20215;-79
2023/03/05 01:45:31;;;;;;;4.70;1.60;;;;;19.50;100930.00;;;;2064557;28;20239;-79
2023/03/05 01:46:38;;;;;;;3.45;1.65;;;;;19.50;100928.00;;;;2064631;28;20218;-79
2023/03/05 01:47:39;;;;;;;2.42;1.30;;;;;19.50;100919.00;;;;2064143;28;20222;-79
2023/03/05 01:48:39;;;;;;;4.27;1.27;;;;;19.40;100932.00;;;;2055481;28;20286;-78
2023/03/05 01:49:40;;;;;;;4.17;1.53;;;;;19.50;100900.00;;;;2055762;28;20299;-79
2023/03/05 01:50:40;;;;;;;3.20;1.47;;;;;19.50;100915.00;;;;2055908;28;20215;-79
2023/03/05 01:51:44;;;;;;;4.30;2.10;;;;;19.50;100921.00;;;;2047932;28;20715;-78
2023/03/05 01:52:48;;;;;;;2.25;1.33;;;;;19.40;100887.00;;;;2048247;28;20295;-79
2023/03/05 01:53:48;;;;;;;3.45;1.70;;;;;19.40;100925.00;;;;2048775;28;20235;-78
2023/03/05 01:54:50;;;;;;;3.03;1.60;;;;;19.40;100887.00;;;;2063798;28;20215;-79
2023/03/05 01:55:51;;;;;;;4.75;1.60;;;;;19.40;100920.00;;;;2063963;28;20210;-79
2023/03/05 01:56:51;;;;;;;1.73;1.13;;;;;19.40;100898.00;;;;2063871;28;20211;-79
2023/03/05 01:57:56;;;;;;;2.27;1.40;;;;;19.40;100913.00;;;;2063469;28;20290;-79
2023/03/05 01:59:02;;;;;;;3.90;1.40;;;;;19.40;100900.00;;;;2063829;28;20211;-79
2023/03/05 02:00:14;;;;;;;2.67;1.20;;;;;19.40;100877.00;;;;2063752;28;20219;-79
2023/03/05 02:01:15;;;;;;;2.67;1.27;;;;;19.40;100915.00;;;;2057824;28;20207;-79
2023/03/05 02:02:16;;;;;;;2.22;1.10;;;;;19.50;100906.00;;;;2055714;28;20285;-79
2023/03/05 02:03:16;;;;;;;3.20;1.10;;;;;19.40;100909.00;;;;2055402;28;20266;-80
2023/03/05 02:04:18;;;;;;;2.13;1.20;;;;;19.40;100903.00;;;;2063191;28;20219;-79
2023/03/05 02:05:25;;;;;;;2.28;1.40;;;;;19.40;100839.00;;;;2055789;28;20219;-80
2023/03/05 02:06:26;;;;;;;2.45;1.13;;;;;19.40;100911.00;;;;2063458;28;20565;-79
2023/03/05 02:07:26;;;;;;;3.23;1.27;;;;;19.40;100882.00;;;;2047806;28;20227;-79
2023/03/05 02:08:26;;;;;;;2.90;1.23;;;;;19.40;100903.00;;;;2055147;28;20220;-79
2023/03/05 02:09:27;;;;;;;2.00;1.23;;;;;19.40;100900.00;;;;2063362;28;20243;-79
2023/03/05 02:10:33;;;;;;;3.00;1.27;;;;;19.40;100804.00;;;;2063426;28;20845;-79
2023/03/05 02:11:33;;;;;;;2.35;1.10;;;;;19.40;100888.00;;;;2063462;28;20516;-80
2023/03/05 02:12:34;;;;;;;4.37;1.10;;;;;19.40;100898.00;;;;2063189;28;20305;-80
2023/03/05 02:13:37;;;;;;;2.47;0.93;;;;;19.30;100901.00;;;;2063439;28;20211;-79
2023/03/05 02:14:37;;;;;;;3.03;1.65;;;;;19.40;100864.00;;;;2063141;28;20321;-78
2023/03/05 02:15:38;;;;;;;5.30;1.60;;;;;18.90;100913.00;;;;2063145;28;20650;-79
2023/03/05 02:16:38;;;;;;;2.00;0.90;;;;;19.30;100890.00;;;;2063368;28;20757;-79
2023/03/05 02:17:38;;;;;;;1.83;0.90;;;;;19.30;100875.00;;;;2063354;28;20218;-79
2023/03/05 02:18:39;;;;;;;1.87;0.90;;;;;19.30;100914.00;;;;2063169;28;20215;-79
2023/03/05 02:19:53;;;;;;;2.00;1.03;;;;;19.30;100888.00;;;;2063933;28;20557;-79
2023/03/05 02:20:56;;;;;;;1.67;0.80;;;;;19.40;100889.00;;;;2064093;28;20756;-79
2023/03/05 02:21:57;;;;;;;2.30;1.00;;;;;19.30;100883.00;;;;2063609;28;20718;-79
2023/03/05 02:22:57;;;;;;;2.57;1.10;;;;;19.30;100884.00;;;;2063611;28;20246;-79
2023/03/05 02:23:57;;;;;;;2.93;1.20;;;;;19.30;100883.00;;;;2063011;28;20229;-80
2023/03/05 02:24:58;;;;;;;1.90;0.80;;;;;19.30;100878.00;;;;2063432;28;20280;-80
2023/03/05 02:25:58;;;;;;;2.30;1.00;;;;;19.30;100879.00;;;;2062427;28;20215;-80
2023/03/05 02:26:59;;;;;;;3.40;1.20;;;;;19.30;100883.00;;;;2061355;28;20237;-79
2023/03/05 02:28:05;;;;;;;4.20;0.90;;;;;19.30;100883.00;;;;2063163;28;20269;-79
2023/03/05 02:29:06;;;;;;;2.47;0.90;;;;;19.30;100878.00;;;;2063512;28;20211;-79
2023/03/05 02:30:07;;;;;;;1.55;1.00;;;;;19.30;100871.00;;;;2062753;28;20219;-79
2023/03/05 02:31:09;;;;;;;2.13;0.90;;;;;19.30;100866.00;;;;2062716;28;20214;-79
2023/03/05 02:32:10;;;;;;;2.03;0.90;;;;;19.30;100875.00;;;;2052589;28;20691;-78
2023/03/05 02:33:10;;;;;;;2.23;1.00;;;;;19.30;100870.00;;;;2054699;28;20222;-79
2023/03/05 02:34:10;;;;;;;1.17;0.87;;;;;19.30;100873.00;;;;2054618;28;20215;-78
2023/03/05 02:35:11;;;;;;;2.20;1.17;;;;;19.30;100857.00;;;;2062948;28;20229;-79
2023/03/05 02:36:11;;;;;;;4.30;1.10;;;;;19.30;100862.00;;;;2063496;28;20691;-79
2023/03/05 02:37:11;;;;;;;2.50;1.07;;;;;19.30;100861.00;;;;2063552;28;20768;-79
2023/03/05 02:38:12;;;;;;;2.87;0.83;;;;;19.30;100872.00;;;;2063109;28;20650;-79
2023/03/05 02:39:13;;;;;;;1.80;0.68;;;;;19.30;100865.00;;;;2063475;28;20218;-79
2023/03/05 02:40:13;;;;;;;2.13;0.80;;;;;19.30;100857.00;;;;2062891;28;20294;-79
2023/03/05 02:41:13;;;;;;;1.90;0.73;;;;;19.30;100868.00;;;;2062905;28;20214;-79
2023/03/05 02:42:14;;;;;;;2.33;0.87;;;;;19.30;100854.00;;;;2064085;28;20214;-79
2023/03/05 02:43:14;;;;;;;2.17;0.90;;;;;19.30;100867.00;;;;2063801;28;20230;-79
2023/03/05 02:44:14;;;;;;;1.87;0.90;;;;;19.30;100870.00;;;;2068488;28;20287;-79
2023/03/05 02:45:15;;;;;;;2.50;0.80;;;;;19.30;100862.00;;;;2071948;28;20203;-79
2023/03/05 02:46:15;;;;;;;1.97;0.80;;;;;19.30;100834.00;;;;2071923;28;20237;-79
2023/03/05 02:47:16;;;;;;;2.30;1.00;;;;;19.30;100856.00;;;;2072102;28;20635;-79
2023/03/05 02:48:16;;;;;;;1.40;0.73;;;;;19.30;100864.00;;;;2071625;28;20226;-79
2023/03/05 02:49:16;;;;;;;1.90;1.03;;;;;19.30;100867.00;;;;2071835;28;20222;-80
2023/03/05 02:50:17;;;;;;;1.97;1.13;;;;;19.20;100858.00;;;;2071718;28;20233;-79
2023/03/05 02:51:17;;;;;;;2.60;1.17;;;;;19.30;100857.00;;;;2070780;28;20214;-79
2023/03/05 02:52:17;;;;;;;2.20;1.00;;;;;19.20;100861.00;;;;2071117;28;20229;-80
2023/03/05 02:53:18;;;;;;;2.30;1.33;;;;;19.20;100858.00;;;;2071687;28;20236;-79
2023/03/05 02:54:18;;;;;;;3.80;1.30;;;;;19.20;100862.00;;;;2071497;28;20449;-79
2023/03/05 02:55:18;;;;;;;1.90;0.70;;;;;19.20;100824.00;;;;2070329;28;20218;-79
2023/03/05 02:56:19;;;;;;;2.80;1.00;;;;;19.20;100858.00;;;;2068758;28;20214;-79
2023/03/05 02:57:19;;;;;;;2.13;0.93;;;;;19.20;100857.00;;;;2070963;28;20717;-79
2023/03/05 02:58:19;;;;;;;2.90;1.17;;;;;19.20;100853.00;;;;2070230;28;20222;-79
2023/03/05 02:59:20;;;;;;;1.83;0.97;;;;;19.20;100847.00;;;;2062560;28;20211;-79
2023/03/05 03:00:20;;;;;;;2.73;1.23;;;;;19.20;100861.00;;;;2070622;28;20221;-79
2023/03/05 03:01:20;;;;;;;2.50;0.80;;;;;19.20;100847.00;;;;2070670;28;20230;-79
2023/03/05 03:02:21;;;;;;;3.33;1.50;;;;;19.20;100818.00;;;;2071958;28;20212;-79
2023/03/05 03:03:21;;;;;;;2.20;1.00;;;;;19.10;100831.00;;;;2071023;28;20206;-79
2023/03/05 03:04:21;;;;;;;2.73;1.23;;;;;19.20;100850.00;;;;2071429;28;20962;-79
2023/03/05 03:05:22;;;;;;;3.33;1.27;;;;;19.10;100843.00;;;;2071810;28;20660;-79
2023/03/05 03:06:22;;;;;;;3.07;1.10;;;;;19.10;100831.00;;;;2071908;28;20583;-79
2023/03/05 03:07:22;;;;;;;3.53;1.03;;;;;19.20;100844.00;;;;2071152;28;20563;-79
2023/03/05 03:08:23;;;;;;;1.50;0.90;;;;;19.20;100843.00;;;;2070962;28;20316;-79
2023/03/05 03:09:23;;;;;;;2.77;1.10;;;;;19.20;100839.00;;;;2071647;28;20242;-79
2023/03/05 03:10:23;;;;;;;3.07;1.20;;;;;19.20;100832.00;;;;2071905;28;20213;-78
2023/03/05 03:11:24;;;;;;;1.60;1.10;;;;;19.20;100810.00;;;;2071703;28;20217;-79
2023/03/05 03:12:24;;;;;;;2.67;1.47;;;;;19.20;100829.00;;;;2071805;28;20222;-79
2023/03/05 03:13:24;;;;;;;2.10;1.27;;;;;19.20;100805.00;;;;2071243;28;20674;-79
2023/03/05 03:14:25;;;;;;;3.20;1.13;;;;;19.10;100828.00;;;;2070816;28;20653;-80
2023/03/05 03:15:25;;;;;;;3.13;1.30;;;;;19.20;100825.00;;;;2070788;28;20586;-79
2023/03/05 03:16:25;;;;;;;2.30;1.30;;;;;19.10;100784.00;;;;2070943;28;20202;-79
2023/03/05 03:17:26;;;;;;;4.97;0.90;;;;;19.10;100822.00;;;;2071445;28;20308;-79
2023/03/05 03:18:26;;;;;;;4.90;1.17;;;;;19.10;100823.00;;;;2070902;28;20296;-79
2023/03/05 03:19:26;;;;;;;2.00;1.00;;;;;19.20;100820.00;;;;2071275;28;20220;-79
2023/03/05 03:20:27;;;;;;;2.70;1.23;;;;;19.20;100818.00;;;;2070557;28;20221;-79
2023/03/05 03:21:27;;;;;;;2.47;1.00;;;;;19.10;100818.00;;;;2070643;28;20237;-79
2023/03/05 03:22:27;;;;;;;3.20;1.37;;;;;19.10;100816.00;;;;2071213;28;20264;-79
2023/03/05 03:23:28;;;;;;;2.40;0.90;;;;;19.10;100810.00;;;;2071329;28;20210;-80
2023/03/05 03:24:29;;;;;;;2.30;1.00;;;;;19.10;100818.00;;;;2071266;28;20210;-79
2023/03/05 03:25:29;;;;;;;2.75;1.20;;;;;19.10;100810.00;;;;2071379;28;20631;-80
2023/03/05 03:26:30;;;;;;;2.10;1.20;;;;;19.10;100813.00;;;;2071223;28;20309;-80
2023/03/05 03:27:31;;;;;;;2.83;1.03;;;;;19.10;100808.00;;;;2071448;28;20205;-80
2023/03/05 03:28:31;;;;;;;4.70;1.50;;;;;19.10;100813.00;;;;2070856;28;20551;-80
2023/03/05 03:29:31;;;;;;;3.10;1.10;;;;;19.10;100813.00;;;;2071645;28;20224;-80
2023/03/05 03:30:32;;;;;;;4.20;1.17;;;;;19.10;100812.00;;;;2071720;28;20218;-79
2023/03/05 03:31:32;;;;;;;2.40;1.13;;;;;19.10;100810.00;;;;2070748;28;20229;-79
2023/03/05 03:32:32;;;;;;;4.20;1.50;;;;;19.10;100808.00;;;;2070910;28;20225;-79
2023/03/05 03:33:33;;;;;;;4.40;1.20;;;;;19.10;100797.00;;;;2071574;28;20218;-80
2023/03/05 03:34:33;;;;;;;2.63;1.00;;;;;19.10;100793.00;;;;2071778;28;20215;-80
2023/03/05 03:35:33;;;;;;;3.47;1.13;;;;;19.10;100797.00;;;;2071731;28;20340;-80
2023/03/05 03:36:34;;;;;;;2.50;1.70;;;;;19.10;100799.00;;;;2071614;28;20237;-79
2023/03/05 03:37:35;;;;;;;3.97;1.57;;;;;19.00;100794.00;;;;2071692;28;20206;-80
2023/03/05 03:38:35;;;;;;;4.28;1.20;;;;;19.10;100792.00;;;;2071041;28;20226;-79
2023/03/05 03:39:35;;;;;;;4.50;1.30;;;;;19.10;100794.00;;;;2071681;28;20214;-80
2023/03/05 03:40:36;;;;;;;3.23;1.10;;;;;19.10;100797.00;;;;2071709;28;20217;-79
2023/03/05 03:41:50;;;;;;;5.93;1.47;;;;;19.10;100787.00;;;;2071530;28;20213;-80
2023/03/05 03:42:51;;;;;;;5.03;1.40;;;;;19.00;100795.00;;;;2070720;28;20209;-79
2023/03/05 03:43:52;;;;;;;2.83;1.30;;;;;19.00;100778.00;;;;2068508;28;20603;-79
2023/03/05 03:44:52;;;;;;;3.13;1.47;;;;;19.10;100780.00;;;;2063514;28;20481;-79
2023/03/05 03:45:52;;;;;;;3.23;1.30;;;;;19.00;100784.00;;;;2062932;28;20646;-79
2023/03/05 03:46:55;;;;;;;4.70;1.20;;;;;19.00;100785.00;;;;2062946;28;20214;-80
2023/03/05 03:47:56;;;;;;;3.15;1.52;;;;;19.00;100792.00;;;;2063377;28;20297;-79
2023/03/05 03:48:56;;;;;;;1.87;0.97;;;;;19.10;100787.00;;;;2063339;28;20210;-79
2023/03/05 03:49:57;;;;;;;4.10;1.50;;;;;19.00;100791.00;;;;2063317;28;20242;-79
2023/03/05 03:50:58;;;;;;;3.78;1.35;;;;;19.00;100791.00;;;;2063480;28;20214;-79
2023/03/05 03:51:58;;;;;;;5.17;1.67;;;;;19.00;100775.00;;;;2063310;28;20579;-80
2023/03/05 03:52:58;;;;;;;2.80;1.50;;;;;19.00;100781.00;;;;2063604;28;20595;-79
2023/03/05 03:53:59;;;;;;;3.53;1.27;;;;;19.00;100778.00;;;;2063474;28;20207;-79
2023/03/05 03:55:00;;;;;;;3.03;1.20;;;;;19.00;100777.00;;;;2062567;28;20292;-80
2023/03/05 03:56:01;;;;;;;4.82;1.48;;;;;19.00;100774.00;;;;2062620;28;20203;-79
2023/03/05 03:57:02;;;;;;;2.63;1.10;;;;;19.00;100776.00;;;;2063700;28;20228;-79
2023/03/05 03:58:03;;;;;;;3.38;1.30;;;;;19.00;100779.00;;;;2063046;28;20571;-79
2023/03/05 03:59:03;;;;;;;5.20;1.57;;;;;19.00;100774.00;;;;2063342;28;20249;-79
2023/03/05 04:00:06;;;;;;;3.10;1.40;;;;;19.00;100770.00;;;;2063451;28;20226;-80
2023/03/05 04:01:07;;;;;;;2.15;1.08;;;;;19.00;100767.00;;;;2062941;28;20621;-79
2023/03/05 04:02:07;;;;;;;3.53;1.73;;;;;19.00;100751.00;;;;2062831;28;20219;-79
2023/03/05 04:03:08;;;;;;;3.53;1.33;;;;;19.00;100757.00;;;;2062628;28;20301;-79
2023/03/05 04:04:09;;;;;;;4.43;1.53;;;;;19.00;100770.00;;;;2054636;28;20246;-80
2023/03/05 04:05:09;;;;;;;3.47;1.40;;;;;19.00;100771.00;;;;2054679;28;20686;-79
2023/03/05 04:06:10;;;;;;;2.43;1.43;;;;;19.00;100761.00;;;;2062551;28;20231;-80
2023/03/05 04:07:10;;;;;;;2.67;1.30;;;;;19.00;100770.00;;;;2062798;28;20223;-79
2023/03/05 04:08:10;;;;;;;2.60;1.40;;;;;19.00;100766.00;;;;2061998;28;20219;-79
2023/03/05 04:09:11;;;;;;;3.60;1.30;;;;;19.00;100764.00;;;;2062746;28;20211;-79
2023/03/05 04:10:11;;;;;;;2.53;1.10;;;;;18.90;100768.00;;;;2063320;28;20843;-79
2023/03/05 04:11:12;;;;;;;3.50;1.60;;;;;18.90;100700.00;;;;2062301;28;20219;-80
2023/03/05 04:12:16;;;;;;;2.90;1.27;;;;;19.00;100766.00;;;;2063130;28;20242;-80
2023/03/05 04:13:17;;;;;;;2.95;1.58;;;;;19.00;100758.00;;;;2062461;28;20302;-80
2023/03/05 04:14:17;;;;;;;2.07;1.17;;;;;19.00;100759.00;;;;2062675;28;20221;-80
2023/03/05 04:15:17;;;;;;;3.97;1.33;;;;;19.00;100758.00;;;;2063252;28;20301;-80
2023/03/05 04:16:18;;;;;;;3.73;1.33;;;;;18.90;100759.00;;;;2062571;28;20221;-80
2023/03/05 04:17:18;;;;;;;4.63;1.37;;;;;18.90;100751.00;;;;2062571;28;20214;-80
2023/03/05 04:18:19;;;;;;;4.60;1.27;;;;;18.90;100753.00;;;;2062940;28;20221;-79
2023/03/05 04:19:19;;;;;;;2.43;1.20;;;;;19.00;100758.00;;;;2061894;28;20222;-79
2023/03/05 04:20:19;;;;;;;2.67;1.30;;;;;18.90;100757.00;;;;2063205;28;20995;-80
2023/03/05 04:21:20;;;;;;;3.33;1.40;;;;;18.90;100729.00;;;;2063184;28;20235;-80
2023/03/05 04:22:20;;;;;;;4.23;1.57;;;;;18.90;100732.00;;;;2062430;28;20290;-80
2023/03/05 04:23:20;;;;;;;2.27;1.30;;;;;18.90;100757.00;;;;2062637;28;20218;-80
2023/03/05 04:24:20;;;;;;;4.27;1.90;;;;;18.90;100662.00;;;;2062485;28;20229;-79
2023/03/05 04:25:21;;;;;;;3.40;1.60;;;;;18.90;100744.00;;;;2062492;28;20713;-79
2023/03/05 04:26:21;;;;;;;3.37;1.63;;;;;18.90;100757.00;;;;2063301;28;20587;-80
2023/03/05 04:27:21;;;;;;;3.50;1.80;;;;;18.90;100749.00;;;;2062799;28;20281;-80
2023/03/05 04:28:22;;;;;;;3.33;1.60;;;;;18.90;100754.00;;;;2062771;28;20234;-79
2023/03/05 04:29:22;;;;;;;5.27;2.10;;;;;18.90;100744.00;;;;2062963;28;20217;-79
2023/03/05 04:30:23;;;;;;;4.07;1.90;;;;;18.90;100747.00;;;;2063186;28;20210;-80
2023/03/05 04:31:23;;;;;;;4.10;2.30;;;;;18.90;100746.00;;;;2063303;28;20249;-80
2023/03/05 04:32:28;;;;;;;3.20;1.83;;;;;18.90;100752.00;;;;2063118;28;20238;-79
2023/03/05 04:33:28;;;;;;;3.75;2.38;;;;;18.90;100699.00;;;;2062810;28;20349;-80
2023/03/05 04:34:29;;;;;;;3.53;2.33;;;;;18.90;100730.00;;;;2062926;28;20633;-79
2023/03/05 04:35:29;;;;;;;4.37;1.90;;;;;18.90;100741.00;;;;2063190;28;20580;-79
2023/03/05 04:36:29;;;;;;;4.23;2.77;;;;;18.90;100745.00;;;;2063252;28;20221;-79
2023/03/05 04:37:30;;;;;;;6.30;3.27;;;;;18.90;100737.00;;;;2063356;28;20207;-79
2023/03/05 04:38:30;;;;;;;6.47;2.80;;;;;18.90;100723.00;;;;2062803;28;20235;-79
2023/03/05 04:39:30;;;;;;;3.70;2.53;;;;;18.90;100713.00;;;;2063091;28;20242;-79
2023/03/05 04:40:31;;;;;;;4.70;2.50;;;;;18.90;100726.00;;;;2062936;28;20300;-79
2023/03/05 04:41:31;;;;;;;4.10;3.20;;;;;18.90;100734.00;;;;2063045;28;20211;-79
2023/03/05 04:42:31;;;;;;;4.90;3.07;;;;;18.90;100680.00;;;;2063108;28;20209;-79
2023/03/05 04:43:32;;;;;;;4.50;3.10;;;;;18.90;100725.00;;;;2062516;28;20237;-79
2023/03/05 04:44:32;;;;;;;6.17;3.40;;;;;18.90;100732.00;;;;2069665;28;20210;-79
2023/03/05 04:45:32;;;;;;;4.20;3.10;;;;;18.90;100727.00;;;;2070642;28;20220;-79
2023/03/05 04:46:33;;;;;;;5.93;3.60;;;;;18.90;100722.00;;;;2070697;28;20214;-79
2023/03/05 04:47:33;;;;;;;6.43;3.30;;;;;18.90;100727.00;;;;2070781;28;20221;-79
2023/03/05 04:48:33;;;;;;;4.77;3.30;;;;;18.90;100732.00;;;;2070251;28;20269;-79
2023/03/05 04:49:34;;;;;;;3.80;3.23;;;;;18.90;100730.00;;;;2071027;28;20206;-79
2023/03/05 04:50:34;;;;;;;7.40;3.60;;;;;18.90;100726.00;;;;2071104;28;20244;-79
2023/03/05 04:51:34;;;;;;;5.67;4.13;;;;;18.80;100700.00;;;;2071372;28;20211;-79
2023/03/05 04:52:38;;;;;;;5.97;4.17;;;;;18.90;100735.00;;;;2071188;28;20214;-79
2023/03/05 04:53:39;;;;;;;5.30;3.85;;;;;18.90;100715.00;;;;2071140;28;20271;-79
2023/03/05 04:54:39;;;;;;;6.07;4.00;;;;;18.80;100706.00;;;;2070383;28;20308;-79
2023/03/05 04:55:39;;;;;;;4.67;3.23;;;;;18.80;100692.00;;;;2062240;28;20255;-79
2023/03/05 04:56:40;;;;;;;7.67;3.83;;;;;18.80;100716.00;;;;2062419;28;20214;-79
2023/03/05 04:57:40;;;;;;;6.50;3.80;;;;;18.80;100683.00;;;;2062457;28;20260;-79
2023/03/05 04:58:40;;;;;;;5.07;3.50;;;;;18.90;100719.00;;;;2070315;28;20218;-79
2023/03/05 04:59:41;;;;;;;6.30;3.77;;;;;18.80;100695.00;;;;2070600;28;20206;-79
2023/03/05 05:00:41;;;;;;;4.33;3.10;;;;;18.80;100713.00;;;;2062359;28;20218;-79
2023/03/05 05:01:42;;;;;;;5.40;3.60;;;;;18.80;100707.00;;;;2062492;28;20289;-79